sensor_id;sensor_type;location;lat;lon;timestamp;pressure;altitude;pressure_sealevel;temperature;humidity
17373;BME280;8803;48.116;11.590;2023-07-16T00:00:59;95250.95;;;26.96;57.26
17373;BME280;8803;48.116;11.590;2023-07-16T00:05:16;95246.92;;;26.70;59.71
17373;BME280;8803;48.116;11.590;2023-07-16T00:07:20;95263.19;;;26.77;59.21
17373;BME280;8803;48.116;11.590;2023-07-16T00:09:23;95267.87;;;26.65;59.93
17373;BME280;8803;48.116;11.590;2023-07-16T00:11:27;95267.48;;;26.58;60.44
17373;BME280;8803;48.116;11.590;2023-07-16T00:15:43;95273.48;;;26.58;60.31
17373;BME280;8803;48.116;11.590;2023-07-16T00:17:47;95277.47;;;26.53;60.15
17373;BME280;8803;48.116;11.590;2023-07-16T00:19:51;95269.09;;;26.43;61.88
17373;BME280;8803;48.116;11.590;2023-07-16T00:21:55;95283.59;;;26.43;61.32
17373;BME280;8803;48.116;11.590;2023-07-16T00:23:59;95278.32;;;26.39;62.15
17373;BME280;8803;48.116;11.590;2023-07-16T00:26:03;95281.05;;;26.39;61.10
17373;BME280;8803;48.116;11.590;2023-07-16T00:28:06;95281.47;;;26.34;62.86
17373;BME280;8803;48.116;11.590;2023-07-16T00:32:25;95288.35;;;26.36;62.99
17373;BME280;8803;48.116;11.590;2023-07-16T00:34:29;95282.76;;;26.29;62.36
17373;BME280;8803;48.116;11.590;2023-07-16T00:38:46;95298.36;;;26.31;61.85
17373;BME280;8803;48.116;11.590;2023-07-16T00:40:50;95308.44;;;26.30;62.40
17373;BME280;8803;48.116;11.590;2023-07-16T00:45:11;95309.02;;;26.32;63.22
17373;BME280;8803;48.116;11.590;2023-07-16T00:47:15;95322.03;;;26.28;62.72
17373;BME280;8803;48.116;11.590;2023-07-16T00:49:19;95335.68;;;26.28;62.36
17373;BME280;8803;48.116;11.590;2023-07-16T00:51:25;95341.98;;;26.28;62.01
17373;BME280;8803;48.116;11.590;2023-07-16T00:53:30;95355.62;;;26.28;61.98
17373;BME280;8803;48.116;11.590;2023-07-16T00:55:34;95383.20;;;26.29;62.41
17373;BME280;8803;48.116;11.590;2023-07-16T00:57:39;95399.05;;;26.30;62.15
17373;BME280;8803;48.116;11.590;2023-07-16T00:59:43;95414.66;;;26.32;62.46
17373;BME280;8803;48.116;11.590;2023-07-16T01:01:47;95422.01;;;26.31;62.05
17373;BME280;8803;48.116;11.590;2023-07-16T01:03:51;95428.84;;;26.31;63.42
17373;BME280;8803;48.116;11.590;2023-07-16T01:08:08;95444.22;;;26.35;62.56
17373;BME280;8803;48.116;11.590;2023-07-16T01:10:13;95449.87;;;26.31;62.57
17373;BME280;8803;48.116;11.590;2023-07-16T01:14:32;95469.62;;;26.35;62.92
17373;BME280;8803;48.116;11.590;2023-07-16T01:16:35;95477.45;;;26.32;62.94
17373;BME280;8803;48.116;11.590;2023-07-16T01:18:39;95494.08;;;26.30;63.59
17373;BME280;8803;48.116;11.590;2023-07-16T01:20:43;95492.40;;;26.29;63.55
17373;BME280;8803;48.116;11.590;2023-07-16T01:23:05;95481.20;;;26.28;63.49
17373;BME280;8803;48.116;11.590;2023-07-16T01:25:21;95498.95;;;26.28;63.63
17373;BME280;8803;48.116;11.590;2023-07-16T01:27:44;95492.64;;;26.28;64.15
17373;BME280;8803;48.116;11.590;2023-07-16T01:31:56;95503.16;;;26.22;65.82
17373;BME280;8803;48.116;11.590;2023-07-16T01:34:00;95503.34;;;26.18;64.74
17373;BME280;8803;48.116;11.590;2023-07-16T01:36:05;95512.05;;;26.17;64.94
17373;BME280;8803;48.116;11.590;2023-07-16T01:38:11;95520.48;;;26.16;65.03
17373;BME280;8803;48.116;11.590;2023-07-16T01:40:16;95520.48;;;26.16;65.03
17373;BME280;8803;48.116;11.590;2023-07-16T01:42:19;95524.51;;;26.13;65.38
17373;BME280;8803;48.116;11.590;2023-07-16T01:44:23;95523.14;;;26.13;65.31
17373;BME280;8803;48.116;11.590;2023-07-16T01:46:27;95514.76;;;26.06;67.32
17373;BME280;8803;48.116;11.590;2023-07-16T01:48:33;95515.04;;;26.07;66.62
17373;BME280;8803;48.116;11.590;2023-07-16T01:50:38;95519.13;;;26.07;66.12
17373;BME280;8803;48.116;11.590;2023-07-16T01:52:41;95518.30;;;26.06;66.61
17373;BME280;8803;48.116;11.590;2023-07-16T01:54:45;95512.03;;;26.06;65.98
17373;BME280;8803;48.116;11.590;2023-07-16T01:59:02;95523.57;;;26.08;66.88
17373;BME280;8803;48.116;11.590;2023-07-16T02:01:05;95529.98;;;26.04;66.18
17373;BME280;8803;48.116;11.590;2023-07-16T02:05:22;95530.89;;;26.07;67.00
17373;BME280;8803;48.116;11.590;2023-07-16T02:07:25;95536.80;;;26.04;66.99
17373;BME280;8803;48.116;11.590;2023-07-16T02:09:29;95531.06;;;26.03;66.62
17373;BME280;8803;48.116;11.590;2023-07-16T02:11:33;95528.09;;;26.05;67.23
17373;BME280;8803;48.116;11.590;2023-07-16T02:13:37;95527.81;;;26.04;67.48
17373;BME280;8803;48.116;11.590;2023-07-16T02:15:41;95536.00;;;26.04;67.32
17373;BME280;8803;48.116;11.590;2023-07-16T02:19:58;95541.31;;;26.08;68.04
17373;BME280;8803;48.116;11.590;2023-07-16T02:22:02;95556.74;;;26.05;67.65
17373;BME280;8803;48.116;11.590;2023-07-16T02:24:07;95550.76;;;26.05;67.67
17373;BME280;8803;48.116;11.590;2023-07-16T02:28:23;95540.30;;;26.11;67.52
17373;BME280;8803;48.116;11.590;2023-07-16T02:30:27;95545.90;;;26.07;67.38
17373;BME280;8803;48.116;11.590;2023-07-16T02:34:43;95533.47;;;26.11;67.86
17373;BME280;8803;48.116;11.590;2023-07-16T02:36:47;95530.89;;;26.07;66.81
17373;BME280;8803;48.116;11.590;2023-07-16T02:41:03;95543.02;;;26.11;68.07
17373;BME280;8803;48.116;11.590;2023-07-16T02:43:07;95555.45;;;26.07;67.79
17373;BME280;8803;48.116;11.590;2023-07-16T02:45:11;95557.68;;;26.08;68.57
17373;BME280;8803;48.116;11.590;2023-07-16T02:47:15;95564.16;;;26.07;68.08
17373;BME280;8803;48.116;11.590;2023-07-16T02:49:18;95560.91;;;26.07;68.44
17373;BME280;8803;48.116;11.590;2023-07-16T02:51:22;95566.05;;;26.06;68.79
17373;BME280;8803;48.116;11.590;2023-07-16T02:53:26;95572.59;;;26.05;69.11
17373;BME280;8803;48.116;11.590;2023-07-16T02:57:42;95575.70;;;26.09;68.57
17373;BME280;8803;48.116;11.590;2023-07-16T02:59:46;95566.30;;;26.05;68.38
17373;BME280;8803;48.116;11.590;2023-07-16T03:04:04;95566.53;;;26.12;68.58
17373;BME280;8803;48.116;11.590;2023-07-16T03:06:08;95569.72;;;26.09;67.47
17373;BME280;8803;48.116;11.590;2023-07-16T03:08:12;95574.94;;;26.11;67.15
17373;BME280;8803;48.116;11.590;2023-07-16T03:10:16;95575.77;;;26.11;66.96
17373;BME280;8803;48.116;11.590;2023-07-16T03:12:19;95573.88;;;26.12;66.28
17373;BME280;8803;48.116;11.590;2023-07-16T03:14:23;95573.36;;;26.12;66.82
17373;BME280;8803;48.116;11.590;2023-07-16T03:16:27;95583.44;;;26.12;66.59
17373;BME280;8803;48.116;11.590;2023-07-16T03:20:43;95577.56;;;26.17;67.15
17373;BME280;8803;48.116;11.590;2023-07-16T03:25:00;95577.48;;;26.15;67.27
17373;BME280;8803;48.116;11.590;2023-07-16T03:29:20;95584.97;;;26.08;67.51
17373;BME280;8803;48.116;11.590;2023-07-16T03:31:23;95586.41;;;26.01;67.45
17373;BME280;8803;48.116;11.590;2023-07-16T03:33:27;95586.41;;;26.01;66.72
17373;BME280;8803;48.116;11.590;2023-07-16T03:35:31;95593.11;;;25.87;68.34
17373;BME280;8803;48.116;11.590;2023-07-16T03:39:47;95599.31;;;25.94;67.25
17373;BME280;8803;48.116;11.590;2023-07-16T03:41:51;95605.78;;;25.91;67.49
17373;BME280;8803;48.116;11.590;2023-07-16T03:43:55;95609.73;;;25.85;68.49
17373;BME280;8803;48.116;11.590;2023-07-16T03:45:59;95618.84;;;25.79;68.80
17373;BME280;8803;48.116;11.590;2023-07-16T03:48:03;95619.92;;;25.78;67.95
17373;BME280;8803;48.116;11.590;2023-07-16T03:50:09;95623.17;;;25.78;68.04
17373;BME280;8803;48.116;11.590;2023-07-16T03:52:13;95623.94;;;25.76;68.10
17373;BME280;8803;48.116;11.590;2023-07-16T03:56:29;95619.97;;;25.81;67.19
17373;BME280;8803;48.116;11.590;2023-07-16T04:00:45;95610.80;;;25.84;68.06
17373;BME280;8803;48.116;11.590;2023-07-16T04:02:49;95606.49;;;25.77;68.14
17373;BME280;8803;48.116;11.590;2023-07-16T04:04:53;95614.00;;;25.72;69.00
17373;BME280;8803;48.116;11.590;2023-07-16T04:09:09;95624.87;;;25.70;68.96
17373;BME280;8803;48.116;11.590;2023-07-16T04:11:13;95627.69;;;25.63;69.89
17373;BME280;8803;48.116;11.590;2023-07-16T04:13:17;95638.88;;;25.64;70.04
17373;BME280;8803;48.116;11.590;2023-07-16T04:15:21;95644.86;;;25.64;69.59
17373;BME280;8803;48.116;11.590;2023-07-16T04:17:25;95650.87;;;25.63;69.62
17373;BME280;8803;48.116;11.590;2023-07-16T04:19:29;95652.23;;;25.63;69.18
17373;BME280;8803;48.116;11.590;2023-07-16T04:21:33;95655.48;;;25.63;68.71
17373;BME280;8803;48.116;11.590;2023-07-16T04:25:52;95665.78;;;25.70;69.11
17373;BME280;8803;48.116;11.590;2023-07-16T04:27:57;95682.83;;;25.65;71.03
17373;BME280;8803;48.116;11.590;2023-07-16T04:30:00;95684.41;;;25.64;71.26
17373;BME280;8803;48.116;11.590;2023-07-16T04:32:05;95687.89;;;25.62;71.68
17373;BME280;8803;48.116;11.590;2023-07-16T04:34:09;95691.09;;;25.59;72.39
17373;BME280;8803;48.116;11.590;2023-07-16T04:36:13;95698.07;;;25.55;73.31
17373;BME280;8803;48.116;11.590;2023-07-16T04:40:31;95688.37;;;25.50;76.16
17373;BME280;8803;48.116;11.590;2023-07-16T04:44:47;95688.44;;;25.43;76.24
17373;BME280;8803;48.116;11.590;2023-07-16T04:46:51;95695.02;;;25.36;75.94
17373;BME280;8803;48.116;11.590;2023-07-16T04:48:54;95692.53;;;25.34;78.73
17373;BME280;8803;48.116;11.590;2023-07-16T04:50:58;95697.90;;;25.32;78.50
17373;BME280;8803;48.116;11.590;2023-07-16T04:53:02;95700.22;;;25.28;79.20
17373;BME280;8803;48.116;11.590;2023-07-16T04:55:07;95698.48;;;25.25;79.60
17373;BME280;8803;48.116;11.590;2023-07-16T04:57:11;95706.90;;;25.23;80.45
17373;BME280;8803;48.116;11.590;2023-07-16T04:59:15;95708.78;;;25.23;80.44
17373;BME280;8803;48.116;11.590;2023-07-16T05:03:31;95706.06;;;25.23;81.27
17373;BME280;8803;48.116;11.590;2023-07-16T05:05:35;95708.33;;;25.17;81.01
17373;BME280;8803;48.116;11.590;2023-07-16T05:09:52;95688.73;;;25.17;80.19
17373;BME280;8803;48.116;11.590;2023-07-16T05:11:56;95684.19;;;25.11;79.73
17373;BME280;8803;48.116;11.590;2023-07-16T05:16:13;95690.53;;;25.14;79.71
17373;BME280;8803;48.116;11.590;2023-07-16T05:18:17;95695.53;;;25.08;79.39
17373;BME280;8803;48.116;11.590;2023-07-16T05:22:34;95693.56;;;25.06;80.30
17373;BME280;8803;48.116;11.590;2023-07-16T05:26:54;95695.91;;;25.02;79.12
17373;BME280;8803;48.116;11.590;2023-07-16T05:31:11;95700.00;;;25.02;79.51
17373;BME280;8803;48.116;11.590;2023-07-16T05:33:14;95700.67;;;24.98;79.59
17373;BME280;8803;48.116;11.590;2023-07-16T05:37:31;95693.63;;;24.99;79.86
17373;BME280;8803;48.116;11.590;2023-07-16T05:39:35;95705.59;;;24.98;79.85
17373;BME280;8803;48.116;11.590;2023-07-16T05:41:40;95697.95;;;24.98;79.83
17373;BME280;8803;48.116;11.590;2023-07-16T05:43:44;95700.16;;;24.98;79.11
17373;BME280;8803;48.116;11.590;2023-07-16T05:45:49;95705.59;;;24.98;79.21
17373;BME280;8803;48.116;11.590;2023-07-16T05:47:53;95714.38;;;25.00;79.87
17373;BME280;8803;48.116;11.590;2023-07-16T05:49:57;95716.93;;;24.95;80.01
17373;BME280;8803;48.116;11.590;2023-07-16T05:52:01;95725.34;;;24.94;80.80
17373;BME280;8803;48.116;11.590;2023-07-16T05:54:06;95729.11;;;24.93;81.06
17373;BME280;8803;48.116;11.590;2023-07-16T05:56:10;95731.74;;;24.90;81.45
17373;BME280;8803;48.116;11.590;2023-07-16T09:39:23;95701.38;;;29.55;48.28
17373;BME280;8803;48.116;11.590;2023-07-16T09:43:45;95693.72;;;29.59;47.76
17373;BME280;8803;48.116;11.590;2023-07-16T09:45:49;95686.42;;;29.46;46.55
17373;BME280;8803;48.116;11.590;2023-07-16T09:47:53;95681.82;;;29.51;46.88
17373;BME280;8803;48.116;11.590;2023-07-16T09:49:56;95684.07;;;29.54;49.06
17373;BME280;8803;48.116;11.590;2023-07-16T09:56:29;95680.41;;;29.49;47.13
17373;BME280;8803;48.116;11.590;2023-07-16T09:58:33;95678.58;;;29.54;47.43
17373;BME280;8803;48.116;11.590;2023-07-16T10:00:38;95676.41;;;29.56;47.21
17373;BME280;8803;48.116;11.590;2023-07-16T10:04:55;95678.25;;;29.73;47.16
17373;BME280;8803;48.116;11.590;2023-07-16T10:07:00;95681.78;;;29.49;47.04
17373;BME280;8803;48.116;11.590;2023-07-16T10:09:06;95681.90;;;29.56;46.43
17373;BME280;8803;48.116;11.590;2023-07-16T10:11:17;95681.02;;;29.53;46.10
17373;BME280;8803;48.116;11.590;2023-07-16T10:13:23;95677.17;;;29.52;46.25
17373;BME280;8803;48.116;11.590;2023-07-16T10:17:49;95674.02;;;29.62;47.01
17373;BME280;8803;48.116;11.590;2023-07-16T10:19:49;95668.53;;;29.62;47.29
17373;BME280;8803;48.116;11.590;2023-07-16T10:24:06;95674.63;;;29.86;47.51
17373;BME280;8803;48.116;11.590;2023-07-16T10:28:25;95668.59;;;29.87;46.73
17373;BME280;8803;48.116;11.590;2023-07-16T10:30:29;95676.27;;;29.87;46.96
17373;BME280;8803;48.116;11.590;2023-07-16T10:34:49;95672.73;;;30.13;46.62
17373;BME280;8803;48.116;11.590;2023-07-16T10:36:53;95672.80;;;30.21;46.45
17373;BME280;8803;48.116;11.590;2023-07-16T10:39:04;95667.41;;;30.28;45.90
17373;BME280;8803;48.116;11.590;2023-07-16T10:41:08;95665.31;;;30.38;46.03
17373;BME280;8803;48.116;11.590;2023-07-16T10:43:15;95656.83;;;30.42;45.43
17373;BME280;8803;48.116;11.590;2023-07-16T10:45:20;95647.78;;;30.44;45.64
17373;BME280;8803;48.116;11.590;2023-07-16T10:47:25;95656.06;;;30.47;45.53
17373;BME280;8803;48.116;11.590;2023-07-16T10:49:29;95655.78;;;30.46;45.33
17373;BME280;8803;48.116;11.590;2023-07-16T10:51:33;95660.36;;;30.35;45.16
17373;BME280;8803;48.116;11.590;2023-07-16T10:53:42;95653.48;;;30.35;45.63
17373;BME280;8803;48.116;11.590;2023-07-16T10:55:46;95650.27;;;30.43;45.92
17373;BME280;8803;48.116;11.590;2023-07-16T10:57:50;95646.17;;;30.48;46.07
17373;BME280;8803;48.116;11.590;2023-07-16T10:59:57;95645.93;;;30.50;45.61
17373;BME280;8803;48.116;11.590;2023-07-16T11:02:01;95650.34;;;30.53;44.80
17373;BME280;8803;48.116;11.590;2023-07-16T11:04:08;95648.97;;;30.53;44.97
17373;BME280;8803;48.116;11.590;2023-07-16T11:06:12;95642.88;;;30.49;45.13
17373;BME280;8803;48.116;11.590;2023-07-16T11:08:24;95642.55;;;30.43;45.25
17373;BME280;8803;48.116;11.590;2023-07-16T11:12:43;95648.44;;;30.29;45.52
17373;BME280;8803;48.116;11.590;2023-07-16T11:14:48;95649.15;;;30.17;45.42
17373;BME280;8803;48.116;11.590;2023-07-16T11:16:52;95652.03;;;30.06;45.60
17373;BME280;8803;48.116;11.590;2023-07-16T11:18:56;95653.92;;;29.79;46.27
17373;BME280;8803;48.116;11.590;2023-07-16T11:21:00;95652.32;;;29.83;46.17
17373;BME280;8803;48.116;11.590;2023-07-16T11:23:05;95646.52;;;29.79;46.22
17373;BME280;8803;48.116;11.590;2023-07-16T11:25:13;95645.11;;;29.77;46.03
17373;BME280;8803;48.116;11.590;2023-07-16T11:27:21;95641.72;;;29.70;46.16
17373;BME280;8803;48.116;11.590;2023-07-16T11:29:25;95644.89;;;29.61;46.18
17373;BME280;8803;48.116;11.590;2023-07-16T11:31:38;95641.45;;;29.49;46.58
17373;BME280;8803;48.116;11.590;2023-07-16T11:33:36;95634.82;;;29.45;46.74
17373;BME280;8803;48.116;11.590;2023-07-16T11:35:41;95627.08;;;29.40;47.04
17373;BME280;8803;48.116;11.590;2023-07-16T11:39:58;95624.88;;;29.39;47.26
17373;BME280;8803;48.116;11.590;2023-07-16T11:42:03;95628.15;;;29.39;47.26
17373;BME280;8803;48.116;11.590;2023-07-16T11:44:09;95629.06;;;29.44;47.25
17373;BME280;8803;48.116;11.590;2023-07-16T11:46:17;95626.90;;;29.49;47.28
17373;BME280;8803;48.116;11.590;2023-07-16T11:48:21;95626.71;;;29.55;47.35
17373;BME280;8803;48.116;11.590;2023-07-16T11:52:38;95613.55;;;29.77;47.25
17373;BME280;8803;48.116;11.590;2023-07-16T11:54:41;95614.69;;;29.81;46.91
17373;BME280;8803;48.116;11.590;2023-07-16T11:58:58;95613.28;;;30.02;46.43
17373;BME280;8803;48.116;11.590;2023-07-16T12:01:02;95618.27;;;30.08;45.82
17373;BME280;8803;48.116;11.590;2023-07-16T12:03:05;95603.44;;;30.06;45.22
17373;BME280;8803;48.116;11.590;2023-07-16T12:07:33;95599.17;;;30.18;44.95
17373;BME280;8803;48.116;11.590;2023-07-16T12:09:39;95600.98;;;30.10;44.98
17373;BME280;8803;48.116;11.590;2023-07-16T12:11:44;95599.97;;;30.18;45.20
17373;BME280;8803;48.116;11.590;2023-07-16T12:13:48;95595.05;;;30.20;45.24
17373;BME280;8803;48.116;11.590;2023-07-16T12:15:51;95599.20;;;30.23;45.12
17373;BME280;8803;48.116;11.590;2023-07-16T12:17:55;95597.55;;;30.22;45.00
17373;BME280;8803;48.116;11.590;2023-07-16T12:19:59;95596.18;;;30.22;45.11
17373;BME280;8803;48.116;11.590;2023-07-16T12:22:03;95597.82;;;30.23;44.83
17373;BME280;8803;48.116;11.590;2023-07-16T12:24:07;95599.73;;;30.20;44.97
17373;BME280;8803;48.116;11.590;2023-07-16T12:26:12;95595.85;;;30.18;45.00
17373;BME280;8803;48.116;11.590;2023-07-16T12:28:16;95591.46;;;30.17;44.77
17373;BME280;8803;48.116;11.590;2023-07-16T12:30:20;95587.52;;;30.08;44.91
17373;BME280;8803;48.116;11.590;2023-07-16T12:32:24;95586.42;;;30.07;44.71
17373;BME280;8803;48.116;11.590;2023-07-16T12:36:43;95577.70;;;30.15;45.18
17373;BME280;8803;48.116;11.590;2023-07-16T12:38:47;95591.97;;;30.14;45.12
17373;BME280;8803;48.116;11.590;2023-07-16T12:43:07;95587.31;;;30.15;45.37
17373;BME280;8803;48.116;11.590;2023-07-16T12:47:24;95582.92;;;30.16;45.54
17373;BME280;8803;48.116;11.590;2023-07-16T12:49:27;95588.13;;;30.13;45.48
17373;BME280;8803;48.116;11.590;2023-07-16T12:51:31;95592.98;;;30.03;45.57
17373;BME280;8803;48.116;11.590;2023-07-16T12:53:35;95594.59;;;30.02;45.67
17373;BME280;8803;48.116;11.590;2023-07-16T12:55:39;95595.73;;;30.03;45.72
17373;BME280;8803;48.116;11.590;2023-07-16T12:57:43;95606.15;;;30.04;45.96
17373;BME280;8803;48.116;11.590;2023-07-16T12:59:47;95602.63;;;30.08;45.89
17373;BME280;8803;48.116;11.590;2023-07-16T13:04:02;95587.55;;;30.11;45.96
17373;BME280;8803;48.116;11.590;2023-07-16T13:06:06;95590.00;;;30.07;46.01
17373;BME280;8803;48.116;11.590;2023-07-16T13:08:10;95590.00;;;30.07;46.11
17373;BME280;8803;48.116;11.590;2023-07-16T13:10:14;95594.33;;;30.01;45.94
17373;BME280;8803;48.116;11.590;2023-07-16T13:12:17;95580.30;;;30.00;46.14
17373;BME280;8803;48.116;11.590;2023-07-16T13:14:21;95584.15;;;29.99;46.32
17373;BME280;8803;48.116;11.590;2023-07-16T13:16:25;95587.43;;;29.98;46.47
17373;BME280;8803;48.116;11.590;2023-07-16T13:20:42;95588.80;;;29.98;47.40
17373;BME280;8803;48.116;11.590;2023-07-16T13:22:45;95593.99;;;29.95;47.52
17373;BME280;8803;48.116;11.590;2023-07-16T13:24:49;95590.65;;;29.90;48.40
17373;BME280;8803;48.116;11.590;2023-07-16T13:29:05;95578.09;;;29.97;48.55
17373;BME280;8803;48.116;11.590;2023-07-16T13:33:23;95580.09;;;30.06;48.67
17373;BME280;8803;48.116;11.590;2023-07-16T13:35:26;95580.27;;;29.95;49.10
17373;BME280;8803;48.116;11.590;2023-07-16T13:37:30;95587.73;;;30.02;48.80
17373;BME280;8803;48.116;11.590;2023-07-16T13:41:49;95577.38;;;30.09;48.66
17373;BME280;8803;48.116;11.590;2023-07-16T13:43:53;95579.82;;;30.08;48.59
17373;BME280;8803;48.116;11.590;2023-07-16T13:48:09;95578.23;;;30.12;48.66
17373;BME280;8803;48.116;11.590;2023-07-16T13:50:13;95585.11;;;30.12;48.50
17373;BME280;8803;48.116;11.590;2023-07-16T13:52:16;95580.36;;;30.05;48.55
17373;BME280;8803;48.116;11.590;2023-07-16T13:54:20;95579.70;;;29.95;48.66
17373;BME280;8803;48.116;11.590;2023-07-16T13:56:24;95580.80;;;29.94;48.80
17373;BME280;8803;48.116;11.590;2023-07-16T13:58:28;95578.06;;;29.94;48.87
17373;BME280;8803;48.116;11.590;2023-07-16T14:00:32;95577.19;;;29.89;48.95
17373;BME280;8803;48.116;11.590;2023-07-16T14:02:35;95583.18;;;29.86;49.05
17373;BME280;8803;48.116;11.590;2023-07-16T14:04:39;95590.48;;;29.75;49.52
17373;BME280;8803;48.116;11.590;2023-07-16T14:06:43;95590.18;;;29.74;49.49
17373;BME280;8803;48.116;11.590;2023-07-16T14:08:46;95587.40;;;29.72;49.53
17373;BME280;8803;48.116;11.590;2023-07-16T14:13:03;95587.06;;;29.65;50.23
17373;BME280;8803;48.116;11.590;2023-07-16T14:15:08;95589.13;;;29.56;50.38
17373;BME280;8803;48.116;11.590;2023-07-16T14:19:24;95584.52;;;29.59;50.52
17373;BME280;8803;48.116;11.590;2023-07-16T14:21:28;95588.18;;;29.45;50.91
17373;BME280;8803;48.116;11.590;2023-07-16T14:25:45;95585.74;;;29.49;50.98
17373;BME280;8803;48.116;11.590;2023-07-16T14:27:49;95587.57;;;29.41;51.23
17373;BME280;8803;48.116;11.590;2023-07-16T14:29:52;95588.48;;;29.46;51.02
17373;BME280;8803;48.116;11.590;2023-07-16T14:34:09;95581.05;;;29.47;51.39
17373;BME280;8803;48.116;11.590;2023-07-16T14:36:13;95592.03;;;29.47;51.42
17373;BME280;8803;48.116;11.590;2023-07-16T14:40:29;95586.20;;;29.41;51.59
17373;BME280;8803;48.116;11.590;2023-07-16T14:42:33;95598.42;;;29.31;51.98
17373;BME280;8803;48.116;11.590;2023-07-16T14:46:49;95583.08;;;29.32;52.11
17373;BME280;8803;48.116;11.590;2023-07-16T14:48:53;95591.88;;;29.34;52.05
17373;BME280;8803;48.116;11.590;2023-07-16T14:53:11;95579.34;;;29.41;52.29
17373;BME280;8803;48.116;11.590;2023-07-16T14:55:16;95586.69;;;29.35;52.29
17373;BME280;8803;48.116;11.590;2023-07-16T14:59:32;95595.56;;;29.42;52.34
17373;BME280;8803;48.116;11.590;2023-07-16T15:01:37;95598.73;;;29.32;52.79
17373;BME280;8803;48.116;11.590;2023-07-16T15:05:57;95595.49;;;29.37;52.64
17373;BME280;8803;48.116;11.590;2023-07-16T15:08:01;95594.61;;;29.32;52.57
17373;BME280;8803;48.116;11.590;2023-07-16T15:12:21;95594.08;;;29.35;52.76
17373;BME280;8803;48.116;11.590;2023-07-16T15:14:25;95595.64;;;29.28;52.32
17373;BME280;8803;48.116;11.590;2023-07-16T15:16:29;95594.27;;;29.28;52.44
17373;BME280;8803;48.116;11.590;2023-07-16T15:20:45;95587.41;;;29.28;52.66
17373;BME280;8803;48.116;11.590;2023-07-16T15:25:04;95589.11;;;29.13;53.16
17373;BME280;8803;48.116;11.590;2023-07-16T15:27:08;95585.22;;;29.09;53.00
17373;BME280;8803;48.116;11.590;2023-07-16T15:31:23;95585.27;;;29.14;53.19
17373;BME280;8803;48.116;11.590;2023-07-16T15:33:29;95592.66;;;29.13;53.20
17373;BME280;8803;48.116;11.590;2023-07-16T15:37:47;95585.50;;;29.10;53.35
17373;BME280;8803;48.116;11.590;2023-07-16T15:39:51;95591.34;;;28.97;53.62
17373;BME280;8803;48.116;11.590;2023-07-16T15:41:55;95590.80;;;28.97;53.37
17373;BME280;8803;48.116;11.590;2023-07-16T15:43:58;95592.70;;;28.97;53.18
17373;BME280;8803;48.116;11.590;2023-07-16T15:46:02;95596.81;;;28.94;53.23
17373;BME280;8803;48.116;11.590;2023-07-16T15:48:07;95603.32;;;28.90;53.32
17373;BME280;8803;48.116;11.590;2023-07-16T15:52:24;95594.16;;;28.82;53.53
17373;BME280;8803;48.116;11.590;2023-07-16T15:54:28;95600.03;;;28.72;53.61
17373;BME280;8803;48.116;11.590;2023-07-16T15:56:32;95605.73;;;28.68;53.48
17373;BME280;8803;48.116;11.590;2023-07-16T16:00:48;95593.67;;;28.69;53.86
17373;BME280;8803;48.116;11.590;2023-07-16T16:02:53;95598.72;;;28.58;54.05
17373;BME280;8803;48.116;11.590;2023-07-16T16:04:57;95599.30;;;28.60;53.88
17373;BME280;8803;48.116;11.590;2023-07-16T16:07:01;95601.57;;;28.65;53.70
17373;BME280;8803;48.116;11.590;2023-07-16T16:09:06;95586.23;;;28.67;53.32
17373;BME280;8803;48.116;11.590;2023-07-16T16:11:10;95593.18;;;28.72;53.40
17373;BME280;8803;48.116;11.590;2023-07-16T16:15:27;95593.63;;;28.83;53.26
17373;BME280;8803;48.116;11.590;2023-07-16T16:17:31;95596.37;;;28.83;52.91
17373;BME280;8803;48.116;11.590;2023-07-16T16:21:47;95590.98;;;28.90;53.08
17373;BME280;8803;48.116;11.590;2023-07-16T16:26:04;95599.25;;;28.93;52.92
17373;BME280;8803;48.116;11.590;2023-07-16T16:28:08;95599.20;;;28.90;52.68
17373;BME280;8803;48.116;11.590;2023-07-16T16:30:13;95598.94;;;28.89;52.67
17373;BME280;8803;48.116;11.590;2023-07-16T16:34:30;95596.19;;;28.89;52.84
17373;BME280;8803;48.116;11.590;2023-07-16T16:36:33;95598.31;;;28.85;52.78
17373;BME280;8803;48.116;11.590;2023-07-16T16:38:37;95597.73;;;28.83;52.85
17373;BME280;8803;48.116;11.590;2023-07-16T16:40:41;95596.33;;;28.80;52.81
17373;BME280;8803;48.116;11.590;2023-07-16T16:42:45;95588.36;;;28.79;52.91
17373;BME280;8803;48.116;11.590;2023-07-16T16:44:49;95597.87;;;28.74;52.93
17373;BME280;8803;48.116;11.590;2023-07-16T16:46:53;95597.08;;;28.76;52.88
17373;BME280;8803;48.116;11.590;2023-07-16T16:48:57;95590.22;;;28.76;52.87
17373;BME280;8803;48.116;11.590;2023-07-16T16:53:16;95584.30;;;28.81;52.92
17373;BME280;8803;48.116;11.590;2023-07-16T16:57:35;95581.29;;;28.83;52.96
17373;BME280;8803;48.116;11.590;2023-07-16T16:59:39;95586.73;;;28.80;52.89
17373;BME280;8803;48.116;11.590;2023-07-16T17:01:43;95587.30;;;28.82;52.75
17373;BME280;8803;48.116;11.590;2023-07-16T17:03:47;95578.83;;;28.84;52.77
17373;BME280;8803;48.116;11.590;2023-07-16T17:05:50;95585.72;;;28.86;52.71
17373;BME280;8803;48.116;11.590;2023-07-16T17:07:56;95586.83;;;28.88;52.65
17373;BME280;8803;48.116;11.590;2023-07-16T17:10:00;95592.08;;;28.89;52.50
17373;BME280;8803;48.116;11.590;2023-07-16T17:12:06;95592.93;;;28.93;52.44
17373;BME280;8803;48.116;11.590;2023-07-16T17:14:13;95589.91;;;28.92;52.30
17373;BME280;8803;48.116;11.590;2023-07-16T17:16:16;95586.59;;;28.89;52.45
17373;BME280;8803;48.116;11.590;2023-07-16T17:18:21;95589.30;;;28.87;52.47
17373;BME280;8803;48.116;11.590;2023-07-16T17:20:25;95586.81;;;28.85;52.15
17373;BME280;8803;48.116;11.590;2023-07-16T17:22:28;95582.09;;;28.81;52.32
17373;BME280;8803;48.116;11.590;2023-07-16T17:24:32;95578.11;;;28.72;52.46
17373;BME280;8803;48.116;11.590;2023-07-16T17:28:52;95572.58;;;28.69;52.89
17373;BME280;8803;48.116;11.590;2023-07-16T17:30:56;95575.80;;;28.64;52.86
17373;BME280;8803;48.116;11.590;2023-07-16T17:33:03;95577.12;;;28.61;52.87